Impacts TAF Board INFO
FOR SITUATIONAL AWARENESS. NOT TO BE USED FOR FLIGHT PLANNING PURPOSES.
IDs:

KCVG - Cincinnati Intl, KY, US

Issued at 1936 UTC 21 Jun 2018
Updated at 1951 UTC 21 Jun 2018
Potential Impact None Slight Moderate High
Time1943Z 21/20Z 21/21Z 21/22Z 21/23Z 22/00Z 22/01Z 22/02Z 22/03Z 22/04Z 22/05Z 22/06Z 22/07Z 22/08Z>>
Type OBS PRVL
  [TEMP]  
PRVL
  [TEMP]  
PRVL PRVL PRVL PRVL PRVL PRVL PRVL PRVL PRVL PRVL PRVL
VIS 9 >6
  [4]  
>6
  [4]  
>6 >6 >6 >6 >6 >6 >6 >6 >6 >6 5
CIG 38 35
  [15]  
35
  [15]  
35 35 35 35 35 35 35 35 35 35 15
Cover OVC BKN
  [BKN]  
BKN
  [BKN]  
BKN BKN BKN BKN BKN BKN BKN BKN BKN BKN BKN
FltCat VFR VFR
  [MVFR]  
VFR
  [MVFR]  
VFR VFR VFR VFR VFR VFR VFR VFR VFR VFR MVFR
WX -- VCSH
  [-SHRA BR]  
VCSH
  [-SHRA BR]  
VCSH VCSH VCSH VCSH VCSH VCSH VCSH VCSH VCSH VCSH BR
WDir 210 220
[220]
220
[220]
220 220 220 220 220 220 220 220 220 220 VRB
WSpd 10 5
  [5]  
5
  [5]  
5 5 5 5 5 5 5 5 5 5 3
WGst -- --
  [--]  
--
  [--]  
-- -- -- -- -- -- -- -- -- -- --

Raw TAF
KCVG 211936Z 2120/2224 22005KT P6SM VCSH BKN035
  TEMPO 2120/2122 4SM -SHRA BR BKN015
  FM220800 VRB03KT 5SM BR BKN015
  FM221300 19004KT P6SM BKN025
  FM221800 19006KT P6SM VCSH BKN040
  FM222100 19007KT P6SM VCSH BKN030


Raw METAR
KCVG 211943Z 21010KT 9SM SCT011 SCT021 OVC038 23/21 A2975 RMK AO2 RAE43 P0004 T02280211
KCVG 211930Z 22008KT 2SM R18C/4000VP6000FT RA BR SCT012 BKN020 OVC040 23/22 A2975 RMK AO2 SFC VIS 4 P0003 T02280217
KCVG 211923Z 15009KT 2SM R18C/5000VP6000FT -RA BR SCT013 SCT024 OVC044 23/22 A2974 RMK AO2 SFC VIS 3 P0000 T02280217
KCVG 211852Z 16009KT 10SM -RA FEW009 BKN034 BKN070 OVC130 24/22 A2975 RMK AO2 SLP066 P0000 T02390222 $
KCVG 211821Z 17008KT 7SM -RA FEW008 SCT026 OVC050 23/22 A2976 RMK AO2 P0000 T02330222 $
KCVG 211803Z 18007KT 6SM -RA BR SCT006 BKN020 OVC060 24/23 A2977 RMK AO2 CIG 016V027 P0000 T02390228 $
KCVG 211752Z 00000KT 2 1/2SM -RA BR BKN005 BKN015 OVC024 23/23 A2977 RMK AO2 SFC VIS 4 SLP071 P0003 60009 T02330233 10239 20222 58014 $
KCVG 211728Z 23004KT 2 1/2SM -RA BR BKN007 BKN014 OVC024 23/23 A2978 RMK AO2 SFC VIS 3 CIG 005V010 P0003 T02330228 $
KCVG 211714Z 19005KT 4SM -RA BR SCT008 BKN014 OVC075 24/24 A2978 RMK AO2 P0002 T02390239 $
KCVG 211652Z 18006KT 5SM -RA BR FEW007 SCT011 OVC045 23/23 A2979 RMK AO2 RAE14B35 SLP077 P0002 T02330228 $

METAR Board
Radar Display
Forecast Discussion

FOR SITUATIONAL AWARENESS. NOT TO BE USED FOR FLIGHT PLANNING PURPOSES.